Time;durP1;ratioP1;P1;durP2;ratioP2;P2;SDS_P1;SDS_P2;PMS_P1;PMS_P2;Temp;Humidity;BMP_temperature;BMP_pressure;BME280_temperature;BME280_humidity;BME280_pressure;Samples;Min_cycle;Max_cycle;Signal;HPM_P1;HPM_P2
2022/12/01 00:02:25;;;;;;;;;;;;;;;;;;5056732;28;19925;-78
2022/12/01 00:04:51;;;;;;;;;;;;;;;;;;5051632;28;19931;-78
2022/12/01 00:07:17;;;;;;;;;;;;;;;;;;5056323;28;19924;-78
2022/12/01 00:12:30;;;;;;;;;;;;;;;;;;5055644;28;19932;-78
2022/12/01 00:14:59;;;;;;;;;;;;;;;;;;5055396;28;19925;-77
2022/12/01 00:17:27;;;;;;;;;;;;;;;;;;5054794;28;20016;-77
2022/12/01 00:19:54;;;;;;;;;;;;;;;;;;5055855;28;19925;-77
2022/12/01 00:22:23;;;;;;;;;;;;;;;;;;5056576;28;19925;-79
2022/12/01 00:24:49;;;;;;;;;;;;;;;;;;5056159;28;19983;-77
2022/12/01 00:27:16;;;;;;;;;;;;;;;;;;5056020;28;19924;-78
2022/12/01 00:29:42;;;;;;;;;;;;;;;;;;5056605;28;19925;-77
2022/12/01 00:32:09;;;;;;;;;;;;;;;;;;5055629;28;19988;-77
2022/12/01 00:34:38;;;;;;;;;;;;;;;;;;5056259;28;19925;-78
2022/12/01 00:37:04;;;;;;;;;;;;;;;;;;5055685;28;19978;-78
2022/12/01 00:39:31;;;;;;;;;;;;;;;;;;5056081;28;20413;-78
2022/12/01 00:41:57;;;;;;;;;;;;;;;;;;5055770;28;19931;-77
2022/12/01 00:44:24;;;;;;;;;;;;;;;;;;5055678;28;20011;-77
2022/12/01 00:46:50;;;;;;;;;;;;;;;;;;5055864;28;19931;-77
2022/12/01 00:49:17;;;;;;;;;;;;;;;;;;5055288;28;19925;-77
2022/12/01 00:51:44;;;;;;;;;;;;;;;;;;5055409;28;19928;-78
2022/12/01 00:54:11;;;;;;;;;;;;;;;;;;5057372;28;19931;-77
2022/12/01 00:56:37;;;;;;;;;;;;;;;;;;5055016;28;20413;-78
2022/12/01 00:59:04;;;;;;;;;;;;;;;;;;5055265;28;19978;-78
2022/12/01 01:01:33;;;;;;;;;;;;;;;;;;5054767;28;20016;-78
2022/12/01 01:04:00;;;;;;;;;;;;;;;;;;5048095;28;20395;-77
2022/12/01 01:06:26;;;;;;;;;;;;;;;;;;5036729;28;19925;-77
2022/12/01 01:08:54;;;;;;;;;;;;;;;;;;5055413;28;19925;-78
2022/12/01 01:11:23;;;;;;;;;;;;;;;;;;5055186;28;19975;-78
2022/12/01 01:13:50;;;;;;;;;;;;;;;;;;5055530;28;19929;-78
2022/12/01 01:16:19;;;;;;;;;;;;;;;;;;5055533;28;19952;-78
2022/12/01 01:18:48;;;;;;;;;;;;;;;;;;5055041;28;19928;-77
2022/12/01 01:21:15;;;;;;;;;;;;;;;;;;5054832;28;19931;-77
2022/12/01 01:23:42;;;;;;;;;;;;;;;;;;5054627;28;19925;-77
2022/12/01 01:26:11;;;;;;;;;;;;;;;;;;5054467;28;20341;-76
2022/12/01 01:28:40;;;;;;;;;;;;;;;;;;5053904;28;19925;-77
2022/12/01 01:31:07;;;;;;;;;;;;;;;;;;5055481;28;19932;-77
2022/12/01 01:33:33;;;;;;;;;;;;;;;;;;5052491;28;19925;-77
2022/12/01 01:36:00;;;;;;;;;;;;;;;;;;5055068;28;19935;-77
2022/12/01 01:38:26;;;;;;;;;;;;;;;;;;5054185;28;19971;-78
2022/12/01 01:40:53;;;;;;;;;;;;;;;;;;5055302;28;21566;-78
2022/12/01 01:43:34;;;;;;;;;;;;;;;;;;5055251;28;19929;-78
2022/12/01 01:46:02;;;;;;;;;;;;;;;;;;5054838;28;19924;-78
2022/12/01 01:48:28;;;;;;;;;;;;;;;;;;5054149;28;20016;-78
2022/12/01 01:50:55;;;;;;;;;;;;;;;;;;5055176;28;19931;-79
2022/12/01 01:53:22;;;;;;;;;;;;;;;;;;5054319;28;19925;-77
2022/12/01 01:55:54;;;;;;;;;;;;;;;;;;5055430;28;19925;-78
2022/12/01 01:58:24;;;;;;;;;;;;;;;;;;5057076;28;19929;-78
2022/12/01 02:00:55;;;;;;;;;;;;;;;;;;5058013;28;19994;-76
2022/12/01 02:03:23;;;;;;;;;;;;;;;;;;5053077;28;20383;-77
2022/12/01 02:05:50;;;;;;;;;;;;;;;;;;5054969;28;19929;-77
2022/12/01 02:08:16;;;;;;;;;;;;;;;;;;5053337;28;19924;-77
2022/12/01 02:10:48;;;;;;;;;;;;;;;;;;5053217;28;20011;-76
2022/12/01 02:13:18;;;;;;;;;;;;;;;;;;5055250;28;19925;-76
2022/12/01 02:15:48;;;;;;;;;;;;;;;;;;5055982;28;19925;-76
2022/12/01 02:18:22;;;;;;;;;;;;;;;;;;5055631;28;19960;-76
2022/12/01 02:21:07;;;;;;;;;;;;;;;;;;5055435;28;20007;-76
2022/12/01 02:23:48;;;;;;;;;;;;;;;;;;5055897;28;19931;-76
2022/12/01 02:26:24;;;;;;;;;;;;;;;;;;5055822;28;19931;-76
2022/12/01 02:29:07;;;;;;;;;;;;;;;;;;5055354;28;20019;-76
2022/12/01 02:31:45;;;;;;;;;;;;;;;;;;5057284;28;19947;-77
2022/12/01 02:34:14;;;;;;;;;;;;;;;;;;5059289;28;19972;-78
2022/12/01 02:36:44;;;;;;;;;;;;;;;;;;5062681;28;19971;-77
2022/12/01 02:39:12;;;;;;;;;;;;;;;;;;5060507;28;19935;-76
2022/12/01 02:41:42;;;;;;;;;;;;;;;;;;5056971;28;19925;-77
2022/12/01 02:44:15;;;;;;;;;;;;;;;;;;5055981;28;19936;-78
2022/12/01 02:46:45;;;;;;;;;;;;;;;;;;5056028;28;19960;-77
2022/12/01 02:49:15;;;;;;;;;;;;;;;;;;5055876;28;20010;-77
2022/12/01 02:51:43;;;;;;;;;;;;;;;;;;5056997;28;19925;-77
2022/12/01 02:54:10;;;;;;;;;;;;;;;;;;5061036;28;19932;-77
2022/12/01 02:56:37;;;;;;;;;;;;;;;;;;5060205;28;19929;-78
2022/12/01 02:59:08;;;;;;;;;;;;;;;;;;5036984;28;19925;-77
2022/12/01 03:01:40;;;;;;;;;;;;;;;;;;5053390;28;19924;-77
2022/12/01 03:04:17;;;;;;;;;;;;;;;;;;5047463;28;19925;-77
2022/12/01 03:06:49;;;;;;;;;;;;;;;;;;5035763;28;19925;-77
2022/12/01 03:09:19;;;;;;;;;;;;;;;;;;5035555;28;19929;-77
2022/12/01 03:11:55;;;;;;;;;;;;;;;;;;5041666;28;19924;-77
2022/12/01 03:14:29;;;;;;;;;;;;;;;;;;5055499;28;20295;-77
2022/12/01 03:16:58;;;;;;;;;;;;;;;;;;5056493;28;19924;-77
2022/12/01 03:19:30;;;;;;;;;;;;;;;;;;5055913;28;19931;-77
2022/12/01 03:22:02;;;;;;;;;;;;;;;;;;5056311;28;19925;-77
2022/12/01 03:24:31;;;;;;;;;;;;;;;;;;5056295;28;19979;-77
2022/12/01 03:26:58;;;;;;;;;;;;;;;;;;5058622;28;19925;-77
2022/12/01 03:29:26;;;;;;;;;;;;;;;;;;5057284;28;20402;-77
2022/12/01 03:31:55;;;;;;;;;;;;;;;;;;5055435;28;19925;-77
2022/12/01 03:34:24;;;;;;;;;;;;;;;;;;5047429;28;19961;-76
2022/12/01 03:36:55;;;;;;;;;;;;;;;;;;5056594;28;19935;-78
2022/12/01 03:39:24;;;;;;;;;;;;;;;;;;5056486;28;19925;-78
2022/12/01 03:41:54;;;;;;;;;;;;;;;;;;5055067;28;19929;-77
2022/12/01 03:44:21;;;;;;;;;;;;;;;;;;5038825;28;19925;-76
2022/12/01 03:46:50;;;;;;;;;;;;;;;;;;5042465;28;19925;-77
2022/12/01 03:49:17;;;;;;;;;;;;;;;;;;5061064;28;19924;-78
2022/12/01 03:51:48;;;;;;;;;;;;;;;;;;5058790;28;19925;-77
2022/12/01 03:54:18;;;;;;;;;;;;;;;;;;5058381;28;19935;-78
2022/12/01 03:56:48;;;;;;;;;;;;;;;;;;5057966;28;19956;-77
2022/12/01 03:59:15;;;;;;;;;;;;;;;;;;5062811;28;19929;-78
2022/12/01 04:01:41;;;;;;;;;;;;;;;;;;5058489;28;19928;-78
2022/12/01 04:04:09;;;;;;;;;;;;;;;;;;5048581;28;19925;-77
2022/12/01 04:06:35;;;;;;;;;;;;;;;;;;5039858;28;20019;-78
2022/12/01 04:09:02;;;;;;;;;;;;;;;;;;5039465;28;20004;-78
2022/12/01 04:14:13;;;;;;;;;;;;;;;;;;5028512;28;19925;-78
2022/12/01 04:16:39;;;;;;;;;;;;;;;;;;5038060;28;19976;-78
2022/12/01 04:19:06;;;;;;;;;;;;;;;;;;5036426;28;19925;-78
2022/12/01 04:21:32;;;;;;;;;;;;;;;;;;5036862;28;19929;-77
2022/12/01 04:24:02;;;;;;;;;;;;;;;;;;5036804;28;20016;-78
2022/12/01 04:26:31;;;;;;;;;;;;;;;;;;5037166;28;19932;-79
2022/12/01 04:28:57;;;;;;;;;;;;;;;;;;5046116;28;19964;-77
2022/12/01 04:31:24;;;;;;;;;;;;;;;;;;5057137;28;19934;-77
2022/12/01 04:33:50;;;;;;;;;;;;;;;;;;5056911;28;19932;-78
2022/12/01 04:36:17;;;;;;;;;;;;;;;;;;5057872;28;19931;-77
2022/12/01 04:38:43;;;;;;;;;;;;;;;;;;5058289;28;19962;-77
2022/12/01 04:41:10;;;;;;;;;;;;;;;;;;5059390;28;19985;-79
2022/12/01 04:43:38;;;;;;;;;;;;;;;;;;5059812;28;19925;-78
2022/12/01 04:46:05;;;;;;;;;;;;;;;;;;5062252;28;19925;-76
2022/12/01 04:48:31;;;;;;;;;;;;;;;;;;5062165;28;19947;-78
2022/12/01 04:50:58;;;;;;;;;;;;;;;;;;5061110;28;19925;-77
2022/12/01 04:53:24;;;;;;;;;;;;;;;;;;5061804;28;19975;-78
2022/12/01 04:55:51;;;;;;;;;;;;;;;;;;5061718;28;20016;-78
2022/12/01 04:58:17;;;;;;;;;;;;;;;;;;5059994;28;20359;-77
2022/12/01 05:00:45;;;;;;;;;;;;;;;;;;5054226;28;19946;-77
2022/12/01 05:03:11;;;;;;;;;;;;;;;;;;5052805;28;19929;-77
2022/12/01 05:05:38;;;;;;;;;;;;;;;;;;5034001;28;19931;-78
2022/12/01 05:08:04;;;;;;;;;;;;;;;;;;5035093;28;20012;-77
2022/12/01 05:10:31;;;;;;;;;;;;;;;;;;5034112;28;20004;-77
2022/12/01 05:12:57;;;;;;;;;;;;;;;;;;5033414;28;20043;-77
2022/12/01 05:15:24;;;;;;;;;;;;;;;;;;5033369;28;19931;-78
2022/12/01 05:17:51;;;;;;;;;;;;;;;;;;5033865;28;19987;-77
2022/12/01 05:23:03;;;;;;;;;;;;;;;;;;5046124;28;19932;-77
2022/12/01 05:25:29;;;;;;;;;;;;;;;;;;5053198;28;19960;-77
2022/12/01 05:27:56;;;;;;;;;;;;;;;;;;5054629;28;19925;-77
2022/12/01 05:30:22;;;;;;;;;;;;;;;;;;5057977;28;19964;-77
2022/12/01 05:32:49;;;;;;;;;;;;;;;;;;5053844;28;20313;-78
2022/12/01 05:35:17;;;;;;;;;;;;;;;;;;5053517;28;20011;-77
2022/12/01 05:37:43;;;;;;;;;;;;;;;;;;5052697;28;20020;-77
2022/12/01 05:40:10;;;;;;;;;;;;;;;;;;5052849;28;19932;-77
2022/12/01 05:42:36;;;;;;;;;;;;;;;;;;5053402;28;19928;-77
2022/12/01 05:45:03;;;;;;;;;;;;;;;;;;5068875;22;20058;-79
2022/12/01 05:47:29;;;;;;;;;;;;;;;;;;5068630;28;19925;-79
2022/12/01 05:49:56;;;;;;;;;;;;;;;;;;5068810;28;19931;-80
2022/12/01 05:52:23;;;;;;;;;;;;;;;;;;5068146;28;19925;-81
2022/12/01 05:54:50;;;;;;;;;;;;;;;;;;5067261;28;19935;-78
2022/12/01 05:57:16;;;;;;;;;;;;;;;;;;5067332;28;19983;-78
2022/12/01 05:59:43;;;;;;;;;;;;;;;;;;5064261;28;20446;-79
2022/12/01 06:02:09;;;;;;;;;;;;;;;;;;5067216;28;19924;-79
2022/12/01 06:04:36;;;;;;;;;;;;;;;;;;5066136;28;19931;-79
2022/12/01 06:07:02;;;;;;;;;;;;;;;;;;5066518;28;20007;-79
2022/12/01 06:09:30;;;;;;;;;;;;;;;;;;5067630;28;19925;-80
2022/12/01 06:11:56;;;;;;;;;;;;;;;;;;5066128;28;19925;-80
2022/12/01 06:14:23;;;;;;;;;;;;;;;;;;5067996;28;19929;-81
2022/12/01 06:16:49;;;;;;;;;;;;;;;;;;5066865;28;19960;-81
2022/12/01 06:19:16;;;;;;;;;;;;;;;;;;5070947;28;20438;-81
2022/12/01 06:21:42;;;;;;;;;;;;;;;;;;5070807;28;20015;-80
2022/12/01 06:24:10;;;;;;;;;;;;;;;;;;5069566;28;19925;-81
2022/12/01 06:26:38;;;;;;;;;;;;;;;;;;5069640;28;19928;-80
2022/12/01 06:29:04;;;;;;;;;;;;;;;;;;5067125;28;20440;-81
2022/12/01 06:31:30;;;;;;;;;;;;;;;;;;5066979;28;20028;-80
2022/12/01 06:33:57;;;;;;;;;;;;;;;;;;5067480;28;20294;-80
2022/12/01 06:36:23;;;;;;;;;;;;;;;;;;5066600;28;19925;-78
2022/12/01 06:38:49;;;;;;;;;;;;;;;;;;5067026;28;19925;-79
2022/12/01 06:41:16;;;;;;;;;;;;;;;;;;5068139;28;19932;-79
2022/12/01 06:43:43;;;;;;;;;;;;;;;;;;5066615;28;20378;-80
2022/12/01 06:46:10;;;;;;;;;;;;;;;;;;5065203;28;19924;-80
2022/12/01 06:48:36;;;;;;;;;;;;;;;;;;5065133;28;20008;-81
2022/12/01 06:51:03;;;;;;;;;;;;;;;;;;5065494;28;19925;-81
2022/12/01 06:53:29;;;;;;;;;;;;;;;;;;5066797;28;19931;-80
2022/12/01 06:55:59;;;;;;;;;;;;;;;;;;5066435;28;20016;-81
2022/12/01 06:58:25;;;;;;;;;;;;;;;;;;5063325;28;19952;-77
2022/12/01 07:00:53;;;;;;;;;;;;;;;;;;5063349;28;20306;-81
2022/12/01 07:03:19;;;;;;;;;;;;;;;;;;5062387;28;19925;-80
2022/12/01 07:05:54;;;;;;;;;;;;;;;;;;5062028;28;20000;-80
2022/12/01 07:08:21;;;;;;;;;;;;;;;;;;5062248;28;20023;-80
2022/12/01 07:10:55;;;;;;;;;;;;;;;;;;5064319;28;19947;-81
2022/12/01 07:13:22;;;;;;;;;;;;;;;;;;5063105;28;19966;-80
2022/12/01 07:15:48;;;;;;;;;;;;;;;;;;5063871;28;19925;-78
2022/12/01 07:18:16;;;;;;;;;;;;;;;;;;5063990;28;19932;-79
2022/12/01 07:20:42;;;;;;;;;;;;;;;;;;5064975;28;19967;-80
2022/12/01 07:23:09;;;;;;;;;;;;;;;;;;5060774;28;19968;-80
2022/12/01 07:25:35;;;;;;;;;;;;;;;;;;5065740;28;20023;-80
2022/12/01 07:28:02;;;;;;;;;;;;;;;;;;5064717;28;19929;-80
2022/12/01 07:30:28;;;;;;;;;;;;;;;;;;5064648;28;20025;-80
2022/12/01 07:32:55;;;;;;;;;;;;;;;;;;5065439;28;19964;-77
2022/12/01 07:35:23;;;;;;;;;;;;;;;;;;5065394;28;20414;-79
2022/12/01 07:37:54;;;;;;;;;;;;;;;;;;5070158;28;19988;-79
2022/12/01 07:40:20;;;;;;;;;;;;;;;;;;5078633;28;19924;-76
2022/12/01 07:42:49;;;;;;;;;;;;;;;;;;5079151;28;19925;-77
2022/12/01 07:45:15;;;;;;;;;;;;;;;;;;5079762;28;19932;-76
2022/12/01 07:47:45;;;;;;;;;;;;;;;;;;5079467;28;19980;-76
2022/12/01 07:50:12;;;;;;;;;;;;;;;;;;5079478;28;19921;-76
2022/12/01 07:52:40;;;;;;;;;;;;;;;;;;5077762;28;19920;-80
2022/12/01 07:55:06;;;;;;;;;;;;;;;;;;5066584;28;20007;-80
2022/12/01 07:57:33;;;;;;;;;;;;;;;;;;5066245;28;19929;-79
2022/12/01 08:00:02;;;;;;;;;;;;;;;;;;5066407;28;19931;-78
2022/12/01 08:02:29;;;;;;;;;;;;;;;;;;5062187;28;19951;-79
2022/12/01 08:04:55;;;;;;;;;;;;;;;;;;5062193;28;19944;-80
2022/12/01 08:07:21;;;;;;;;;;;;;;;;;;5063430;28;19975;-79
2022/12/01 08:09:49;;;;;;;;;;;;;;;;;;5065630;28;19925;-76
2022/12/01 08:12:16;;;;;;;;;;;;;;;;;;5065387;28;20019;-78
2022/12/01 08:14:42;;;;;;;;;;;;;;;;;;5065086;28;19988;-77
2022/12/01 08:17:08;;;;;;;;;;;;;;;;;;5065314;28;19935;-77
2022/12/01 08:19:35;;;;;;;;;;;;;;;;;;5075076;28;19952;-78
2022/12/01 08:22:01;;;;;;;;;;;;;;;;;;5072307;28;19971;-78
2022/12/01 08:24:28;;;;;;;;;;;;;;;;;;5067819;28;19932;-78
2022/12/01 08:26:56;;;;;;;;;;;;;;;;;;5066361;28;20016;-77
2022/12/01 08:29:22;;;;;;;;;;;;;;;;;;5065906;28;19929;-79
2022/12/01 08:31:49;;;;;;;;;;;;;;;;;;5064983;28;19924;-78
2022/12/01 08:34:15;;;;;;;;;;;;;;;;;;5065286;28;19928;-77
2022/12/01 08:36:42;;;;;;;;;;;;;;;;;;5064701;28;19929;-78
2022/12/01 08:39:08;;;;;;;;;;;;;;;;;;5065253;28;19928;-79
2022/12/01 08:41:35;;;;;;;;;;;;;;;;;;5063334;28;19932;-79
2022/12/01 08:44:02;;;;;;;;;;;;;;;;;;5063279;28;20001;-78
2022/12/01 08:46:31;;;;;;;;;;;;;;;;;;5063125;28;19924;-78
2022/12/01 08:48:58;;;;;;;;;;;;;;;;;;5064071;28;20024;-79
2022/12/01 08:51:24;;;;;;;;;;;;;;;;;;5063225;28;19964;-79
2022/12/01 08:53:51;;;;;;;;;;;;;;;;;;5063953;28;20028;-79
2022/12/01 08:56:18;;;;;;;;;;;;;;;;;;5063798;28;19932;-79
2022/12/01 08:58:44;;;;;;;;;;;;;;;;;;5064827;28;19925;-79
2022/12/01 09:01:14;;;;;;;;;;;;;;;;;;5057601;28;20015;-77
2022/12/01 09:03:41;;;;;;;;;;;;;;;;;;5055075;28;19960;-80
2022/12/01 09:06:08;;;;;;;;;;;;;;;;;;5047025;28;20362;-77
2022/12/01 09:08:35;;;;;;;;;;;;;;;;;;5067967;28;20403;-78
2022/12/01 09:11:02;;;;;;;;;;;;;;;;;;5066970;28;20451;-79
2022/12/01 09:13:32;;;;;;;;;;;;;;;;;;5071143;28;19972;-77
2022/12/01 09:15:59;;;;;;;;;;;;;;;;;;5083278;28;20066;-78
2022/12/01 09:18:27;;;;;;;;;;;;;;;;;;5074421;28;19984;-77
2022/12/01 09:20:54;;;;;;;;;;;;;;;;;;5063150;28;20536;-78
2022/12/01 09:23:21;;;;;;;;;;;;;;;;;;5062057;28;19995;-79
2022/12/01 09:25:48;;;;;;;;;;;;;;;;;;5059413;28;20265;-78
2022/12/01 09:28:14;;;;;;;;;;;;;;;;;;5058463;28;19968;-79
2022/12/01 09:30:41;;;;;;;;;;;;;;;;;;5055662;28;20015;-80
2022/12/01 09:33:12;;;;;;;;;;;;;;;;;;5054769;28;20357;-83
2022/12/01 09:35:41;;;;;;;;;;;;;;;;;;5068344;28;19925;-84
2022/12/01 09:38:08;;;;;;;;;;;;;;;;;;5074263;28;20389;-82
2022/12/01 09:40:36;;;;;;;;;;;;;;;;;;5064098;28;20268;-81
2022/12/01 09:43:14;;;;;;;;;;;;;;;;;;5048682;28;19925;-88
2022/12/01 09:45:44;;;;;;;;;;;;;;;;;;5088877;22;20366;-69
2022/12/01 09:48:18;;;;;;;;;;;;;;;;;;5090878;28;19931;-61
2022/12/01 09:50:46;;;;;;;;;;;;;;;;;;5109762;28;19976;-61
2022/12/01 09:53:15;;;;;;;;;;;;;;;;;;5107203;28;20376;-62
2022/12/01 09:55:43;;;;;;;;;;;;;;;;;;5104353;28;19924;-61
2022/12/01 09:58:15;;;;;;;;;;;;;;;;;;5110371;28;20019;-62
2022/12/01 10:00:43;;;;;;;;;;;;;;;;;;5111197;28;19923;-62
2022/12/01 10:03:16;;;;;;;;;;;;;;;;;;5110814;28;19924;-61
2022/12/01 10:05:44;;;;;;;;;;;;;;;;;;5111749;28;20018;-62
2022/12/01 10:08:13;;;;;;;;;;;;;;;;;;5112172;28;19924;-59
2022/12/01 10:10:42;;;;;;;;;;;;;;;;;;5111364;28;19969;-54
2022/12/01 10:13:15;;;;;;;;;;;;;;;;;;5110669;28;20377;-58
2022/12/01 10:15:45;;;;;;;;;;;;;;;;;;5110617;28;19976;-55
2022/12/01 10:18:19;;;;;;;;;;;;;;;;;;5110568;28;19992;-55
2022/12/01 10:20:49;;;;;;;;;;;;;;;;;;5110352;28;19930;-57
2022/12/01 10:23:23;;;;;;;;;;;;;;;;;;5110419;28;19924;-56
2022/12/01 10:25:53;;;;;;;;;;;;;;;;;;5110811;28;20327;-58
2022/12/01 10:28:29;;;;;;;;;;;;;;;;;;5110058;28;19924;-57
2022/12/01 10:30:59;;;;;;;;;;;;;;;;;;5110082;28;20382;-56
2022/12/01 10:33:26;;;;;;;;;;;;;;;;;;5109833;28;19923;-56
2022/12/01 10:35:53;;;;;;;;;;;;;;;;;;5094107;28;19977;-56
2022/12/01 10:38:25;;;;;;;;;;;;;;;;;;5100477;28;19923;-55
2022/12/01 10:40:52;;;;;;;;;;;;;;;;;;5113988;28;19924;-56
2022/12/01 10:43:23;;;;;;;;;;;;;;;;;;5097621;28;19974;-58
2022/12/01 10:45:49;;;;;;;;;;;;;;;;;;5106165;28;19993;-58
2022/12/01 10:48:17;;;;;;;;;;;;;;;;;;5113847;28;20351;-60
2022/12/01 10:50:45;;;;;;;;;;;;;;;;;;5113920;28;19923;-54
2022/12/01 10:53:29;;;;;;;;;;;;;;;;;;5113991;28;19924;-56
2022/12/01 10:56:02;;;;;;;;;;;;;;;;;;5113805;28;19984;-55
2022/12/01 10:58:29;;;;;;;;;;;;;;;;;;5112976;28;19927;-57
2022/12/01 11:00:56;;;;;;;;;;;;;;;;;;5113792;28;20392;-56
2022/12/01 11:03:23;;;;;;;;;;;;;;;;;;5113576;28;19943;-58
2022/12/01 11:05:51;;;;;;;;;;;;;;;;;;5113715;28;19924;-58
2022/12/01 11:08:21;;;;;;;;;;;;;;;;;;5111226;28;19924;-56
2022/12/01 11:10:50;;;;;;;;;;;;;;;;;;5109060;28;19981;-58
2022/12/01 11:13:21;;;;;;;;;;;;;;;;;;5113035;28;20018;-53
2022/12/01 11:15:50;;;;;;;;;;;;;;;;;;5113018;28;19924;-58
2022/12/01 11:18:23;;;;;;;;;;;;;;;;;;5112699;28;19924;-58
2022/12/01 11:21:19;;;;;;;;;;;;;;;;;;5112607;28;19930;-58
2022/12/01 11:23:53;;;;;;;;;;;;;;;;;;5076811;28;19930;-57
2022/12/01 11:26:42;;;;;;;;;;;;;;;;;;5113185;28;20407;-55
2022/12/01 11:29:24;;;;;;;;;;;;;;;;;;5110251;28;20026;-53
2022/12/01 11:32:02;;;;;;;;;;;;;;;;;;;;;
2022/12/01 11:34:34;;;;;;;;;;;;;;;;;;5111818;28;19924;-56
2022/12/01 11:37:05;;;;;;;;;;;;;;;;;;5112918;28;20392;-56
2022/12/01 11:39:33;;;;;;;;;;;;;;;;;;5112972;28;20119;-55
2022/12/01 11:42:02;;;;;;;;;;;;;;;;;;5112381;28;19924;-58
2022/12/01 11:44:29;;;;;;;;;;;;;;;;;;5112201;28;20177;-54
2022/12/01 11:46:57;;;;;;;;;;;;;;;;;;5113113;28;19932;-58
2022/12/01 11:49:25;;;;;;;;;;;;;;;;;;5112900;28;19924;-54
2022/12/01 11:51:51;;;;;;;;;;;;;;;;;;5112678;28;19982;-54
2022/12/01 11:54:19;;;;;;;;;;;;;;;;;;5113014;28;19931;-55
2022/12/01 11:56:46;;;;;;;;;;;;;;;;;;5113163;28;19931;-56
2022/12/01 11:59:15;;;;;;;;;;;;;;;;;;5112567;28;19923;-57
2022/12/01 12:01:52;;;;;;;;;;;;;;;;;;5112783;28;19924;-55
2022/12/01 12:04:26;;;;;;;;;;;;;;;;;;5112139;28;19973;-56
2022/12/01 12:06:57;;;;;;;;;;;;;;;;;;5112522;28;19930;-53
2022/12/01 12:09:31;;;;;;;;;;;;;;;;;;5112510;28;19931;-57
2022/12/01 12:12:03;;;;;;;;;;;;;;;;;;5112144;28;20050;-56
2022/12/01 12:14:38;;;;;;;;;;;;;;;;;;5112455;28;20407;-56
2022/12/01 12:17:13;;;;;;;;;;;;;;;;;;5112209;28;19927;-57
2022/12/01 12:19:52;;;;;;;;;;;;;;;;;;5112617;28;19947;-57
2022/12/01 12:22:22;;;;;;;;;;;;;;;;;;5112298;28;19932;-57
2022/12/01 12:24:56;;;;;;;;;;;;;;;;;;5111656;28;19935;-59
2022/12/01 12:27:26;;;;;;;;;;;;;;;;;;5112075;28;19948;-55
2022/12/01 12:30:14;;;;;;;;;;;;;;;;;;5114143;28;19924;-60
2022/12/01 12:32:51;;;;;;;;;;;;;;;;;;5110633;28;19928;-58
2022/12/01 12:35:25;;;;;;;;;;;;;;;;;;5111522;28;20136;-60
2022/12/01 12:37:58;;;;;;;;;;;;;;;;;;5110084;28;19992;-60
2022/12/01 12:40:50;;;;;;;;;;;;;;;;;;5111640;28;19924;-61
2022/12/01 12:43:25;;;;;;;;;;;;;;;;;;5111524;28;19976;-61
2022/12/01 12:46:02;;;;;;;;;;;;;;;;;;5111773;28;19977;-61
2022/12/01 12:48:45;;;;;;;;;;;;;;;;;;5111662;28;19927;-61
2022/12/01 12:51:14;;;;;;;;;;;;;;;;;;5111790;28;19977;-61
2022/12/01 12:53:43;;;;;;;;;;;;;;;;;;5111389;28;19924;-61
2022/12/01 12:56:12;;;;;;;;;;;;;;;;;;5110464;28;19923;-61
2022/12/01 12:58:40;;;;;;;;;;;;;;;;;;5111259;28;20270;-61
2022/12/01 13:01:11;;;;;;;;;;;;;;;;;;5112202;28;20400;-60
2022/12/01 13:03:42;;;;;;;;;;;;;;;;;;5111759;28;20076;-61
2022/12/01 13:06:10;;;;;;;;;;;;;;;;;;5111265;28;19928;-61
2022/12/01 13:08:38;;;;;;;;;;;;;;;;;;5110858;28;19924;-59
2022/12/01 13:11:07;;;;;;;;;;;;;;;;;;5111657;28;20384;-60
2022/12/01 13:13:37;;;;;;;;;;;;;;;;;;5111730;28;20385;-60
2022/12/01 13:16:06;;;;;;;;;;;;;;;;;;5111479;28;19923;-60
2022/12/01 13:18:38;;;;;;;;;;;;;;;;;;5111309;28;20444;-58
2022/12/01 13:21:04;;;;;;;;;;;;;;;;;;5110950;28;19927;-61
2022/12/01 13:23:32;;;;;;;;;;;;;;;;;;5110725;28;19930;-60
2022/12/01 13:26:00;;;;;;;;;;;;;;;;;;5110842;28;19927;-60
2022/12/01 13:28:28;;;;;;;;;;;;;;;;;;5110377;28;19927;-60
2022/12/01 13:30:59;;;;;;;;;;;;;;;;;;5112184;28;19924;-72
2022/12/01 13:33:25;;;;;;;;;;;;;;;;;;5113312;28;20315;-70
2022/12/01 13:35:54;;;;;;;;;;;;;;;;;;5113014;28;19924;-69
2022/12/01 13:38:23;;;;;;;;;;;;;;;;;;5111991;28;19924;-62
2022/12/01 13:41:09;;;;;;;;;;;;;;;;;;5096407;28;19936;-57
2022/12/01 13:43:37;;;;;;;;;;;;;;;;;;5112601;28;19935;-61
2022/12/01 13:46:03;;;;;;;;;;;;;;;;;;5112658;28;19923;-55
2022/12/01 13:48:49;;;;;;;;;;;;;;;;;;5112176;28;19931;-51
2022/12/01 13:51:17;;;;;;;;;;;;;;;;;;5112312;28;19977;-55
2022/12/01 13:53:55;;;;;;;;;;;;;;;;;;5112519;28;19928;-54
2022/12/01 13:56:36;;;;;;;;;;;;;;;;;;5110622;28;19967;-59
2022/12/01 13:59:03;;;;;;;;;;;;;;;;;;5111827;28;20292;-56
2022/12/01 14:01:43;;;;;;;;;;;;;;;;;;5112443;28;19928;-57
2022/12/01 14:04:22;;;;;;;;;;;;;;;;;;5111987;28;20014;-67
2022/12/01 14:06:50;;;;;;;;;;;;;;;;;;5111944;28;19977;-51
2022/12/01 14:09:21;;;;;;;;;;;;;;;;;;5123646;22;19925;-79
2022/12/01 14:11:55;;;;;;;;;;;;;;;;;;5085918;28;19924;-81
2022/12/01 14:14:24;;;;;;;;;;;;;;;;;;5082011;28;19929;-81
2022/12/01 14:16:51;;;;;;;;;;;;;;;;;;5079633;28;19929;-80
2022/12/01 14:19:30;;;;;;;;;;;;;;;;;;5081376;28;20355;-82
2022/12/01 14:21:58;;;;;;;;;;;;;;;;;;5082723;28;19963;-80
2022/12/01 14:24:27;;;;;;;;;;;;;;;;;;5079928;28;20000;-80
2022/12/01 14:26:54;;;;;;;;;;;;;;;;;;5079839;28;19946;-79
2022/12/01 14:29:29;;;;;;;;;;;;;;;;;;5079817;28;20015;-80
2022/12/01 14:32:18;;;;;;;;;;;;;;;;;;5080235;28;19924;-79
2022/12/01 14:34:45;;;;;;;;;;;;;;;;;;5075585;28;20296;-80
2022/12/01 14:37:16;;;;;;;;;;;;;;;;;;5079438;28;20023;-80
2022/12/01 14:39:44;;;;;;;;;;;;;;;;;;5079056;28;20433;-80
2022/12/01 14:44:02;;;;;;;;;;;;;;;;;;5079599;28;20019;-80
2022/12/01 14:45:02;;;;;;;;;;;;;;;;;;5080255;28;19929;-80
2022/12/01 14:47:29;;;;;;;;;;;;;;;;;;5077890;28;19925;-79
2022/12/01 14:49:59;;;;;;;;;;;;;;;;;;5078574;28;19972;-80
2022/12/01 14:52:30;;;;;;;;;;;;;;;;;;5078111;28;19924;-79
2022/12/01 14:54:58;;;;;;;;;;;;;;;;;;5081828;28;19977;-80
2022/12/01 14:57:27;;;;;;;;;;;;;;;;;;5077779;28;20066;-81
2022/12/01 15:00:01;;;;;;;;;;;;;;;;;;5078747;28;20007;-79
2022/12/01 15:02:28;;;;;;;;;;;;;;;;;;5078642;28;20037;-80
2022/12/01 15:05:08;;;;;;;;;;;;;;;;;;5077768;28;19931;-80
2022/12/01 15:07:38;;;;;;;;;;;;;;;;;;5077800;28;19991;-80
2022/12/01 15:10:05;;;;;;;;;;;;;;;;;;5077858;28;19924;-81
2022/12/01 15:12:32;;;;;;;;;;;;;;;;;;5077858;28;19924;-80
2022/12/01 15:14:58;;;;;;;;;;;;;;;;;;5077748;28;20367;-79
2022/12/01 15:17:29;;;;;;;;;;;;;;;;;;5074912;28;19960;-79
2022/12/01 15:19:56;;;;;;;;;;;;;;;;;;5076538;28;19924;-79
2022/12/01 15:22:24;;;;;;;;;;;;;;;;;;5077180;28;19999;-78
2022/12/01 15:24:51;;;;;;;;;;;;;;;;;;5075724;28;19978;-79
2022/12/01 15:27:25;;;;;;;;;;;;;;;;;;5056467;28;20011;-80
2022/12/01 15:29:52;;;;;;;;;;;;;;;;;;5063979;28;19971;-79
2022/12/01 15:32:19;;;;;;;;;;;;;;;;;;5077300;28;19960;-78
2022/12/01 15:34:47;;;;;;;;;;;;;;;;;;5067739;28;20009;-80
2022/12/01 15:37:15;;;;;;;;;;;;;;;;;;5056427;28;20100;-79
2022/12/01 15:39:44;;;;;;;;;;;;;;;;;;5074261;28;20073;-80
2022/12/01 15:42:21;;;;;;;;;;;;;;;;;;5077247;28;19925;-79
2022/12/01 15:44:56;;;;;;;;;;;;;;;;;;5076993;28;19924;-80
2022/12/01 15:47:34;;;;;;;;;;;;;;;;;;5076960;28;19988;-82
2022/12/01 15:50:01;;;;;;;;;;;;;;;;;;5076922;28;20378;-80
2022/12/01 15:52:28;;;;;;;;;;;;;;;;;;5076211;28;19990;-79
2022/12/01 15:54:56;;;;;;;;;;;;;;;;;;5072077;28;19925;-80
2022/12/01 15:57:24;;;;;;;;;;;;;;;;;;5063241;28;19989;-81
2022/12/01 15:59:52;;;;;;;;;;;;;;;;;;5056564;28;20016;-80
2022/12/01 16:02:24;;;;;;;;;;;;;;;;;;5071672;28;19971;-80
2022/12/01 16:04:59;;;;;;;;;;;;;;;;;;5062503;28;19925;-81
2022/12/01 16:07:30;;;;;;;;;;;;;;;;;;5055979;28;19932;-80
2022/12/01 16:09:57;;;;;;;;;;;;;;;;;;5065084;28;19933;-80
2022/12/01 16:12:26;;;;;;;;;;;;;;;;;;5056427;28;20015;-80
2022/12/01 16:14:54;;;;;;;;;;;;;;;;;;5070277;28;19982;-79
2022/12/01 16:17:21;;;;;;;;;;;;;;;;;;5074735;28;20015;-79
2022/12/01 16:19:47;;;;;;;;;;;;;;;;;;5075244;28;19960;-81
2022/12/01 16:22:15;;;;;;;;;;;;;;;;;;5075146;28;20401;-79
2022/12/01 16:24:46;;;;;;;;;;;;;;;;;;5075628;28;19989;-80
2022/12/01 16:27:17;;;;;;;;;;;;;;;;;;5075358;28;20646;-79
2022/12/01 16:29:48;;;;;;;;;;;;;;;;;;5060077;28;19968;-80
2022/12/01 16:32:17;;;;;;;;;;;;;;;;;;5055819;28;19936;-80
2022/12/01 16:34:46;;;;;;;;;;;;;;;;;;5055356;28;20422;-79
2022/12/01 16:37:12;;;;;;;;;;;;;;;;;;5055196;28;20388;-79
2022/12/01 16:39:39;;;;;;;;;;;;;;;;;;5071406;28;20031;-79
2022/12/01 16:42:05;;;;;;;;;;;;;;;;;;5074937;28;20007;-79
2022/12/01 16:44:32;;;;;;;;;;;;;;;;;;5074353;28;20292;-78
2022/12/01 16:46:59;;;;;;;;;;;;;;;;;;5075031;28;19925;-80
2022/12/01 16:49:27;;;;;;;;;;;;;;;;;;5075623;28;19948;-80
2022/12/01 16:51:53;;;;;;;;;;;;;;;;;;5075176;28;19935;-80
2022/12/01 16:54:20;;;;;;;;;;;;;;;;;;5071850;28;19979;-86
2022/12/01 16:56:48;;;;;;;;;;;;;;;;;;5075546;28;19924;-82
2022/12/01 16:59:16;;;;;;;;;;;;;;;;;;5091447;28;19979;-90
2022/12/01 17:01:42;;;;;;;;;;;;;;;;;;5083687;28;19978;-78
2022/12/01 17:04:10;;;;;;;;;;;;;;;;;;5063595;28;20298;-81
2022/12/01 17:06:37;;;;;;;;;;;;;;;;;;5070190;28;20403;-79
2022/12/01 17:09:04;;;;;;;;;;;;;;;;;;5063338;28;19928;-77